Time;durP1;ratioP1;P1;durP2;ratioP2;P2;SDS_P1;SDS_P2;PMS_P1;PMS_P2;Temp;Humidity;BMP_temperature;BMP_pressure;BME280_temperature;BME280_humidity;BME280_pressure;Samples;Min_cycle;Max_cycle;Signal;HPM_P1;HPM_P2
2023/01/12 00:00:07;;;;;;;3.90;2.37;;;9.70;99.90;;;;;;4967417;28;20935;-93
2023/01/12 00:02:38;;;;;;;4.90;2.17;;;9.70;99.90;;;;;;4979651;28;20443;-92
2023/01/12 00:05:04;;;;;;;9.00;1.97;;;9.70;99.90;;;;;;4981730;28;20559;-93
2023/01/12 00:11:38;;;;;;;7.70;1.90;;;9.70;99.90;;;;;;4997485;28;20416;-93
2023/01/12 00:14:06;;;;;;;7.47;2.10;;;9.70;99.90;;;;;;4965424;28;20449;-93
2023/01/12 00:16:40;;;;;;;5.57;1.93;;;9.70;99.90;;;;;;4982011;28;20485;-93
2023/01/12 00:19:14;;;;;;;7.20;2.10;;;9.70;99.90;;;;;;4965619;28;20453;-93
2023/01/12 00:24:39;;;;;;;6.70;2.27;;;9.60;99.90;;;;;;4997548;28;20481;-92
2023/01/12 00:27:08;;;;;;;4.70;2.13;;;9.70;99.90;;;;;;4962007;28;20452;-93
2023/01/12 00:29:35;;;;;;;7.93;2.20;;;9.60;99.90;;;;;;4963536;28;20430;-93
2023/01/12 00:32:03;;;;;;;7.73;2.10;;;9.60;99.90;;;;;;4997252;28;20492;-93
2023/01/12 00:34:29;;;;;;;5.00;1.70;;;9.60;99.90;;;;;;4965251;28;20504;-93
2023/01/12 00:36:55;;;;;;;4.67;1.87;;;9.60;99.90;;;;;;4965438;28;20429;-92
2023/01/12 00:39:21;;;;;;;7.77;2.17;;;9.60;99.90;;;;;;4980938;28;20452;-94
2023/01/12 00:47:49;;;;;;;3.93;2.03;;;9.70;99.90;;;;;;4969196;28;20441;-93
2023/01/12 00:50:15;;;;;;;4.57;1.57;;;9.60;99.90;;;;;;4961541;28;20763;-94
2023/01/12 00:52:41;;;;;;;7.80;2.57;;;9.60;99.90;;;;;;4961490;28;20422;-93
2023/01/12 00:55:09;;;;;;;5.40;2.00;;;9.60;99.90;;;;;;4979656;28;20445;-91
2023/01/12 00:57:38;;;;;;;11.93;2.77;;;9.70;99.90;;;;;;4963346;28;20426;-92
2023/01/12 01:00:07;;;;;;;8.77;2.20;;;9.70;99.90;;;;;;4945913;28;20429;-92
2023/01/12 01:02:37;;;;;;;8.90;2.30;;;9.70;99.90;;;;;;4977153;28;20406;-92
2023/01/12 01:05:04;;;;;;;7.17;2.30;;;9.70;99.90;;;;;;4980503;28;20797;-93
2023/01/12 01:07:30;;;;;;;12.13;2.20;;;9.70;99.90;;;;;;4977290;28;20500;-92
2023/01/12 01:09:56;;;;;;;5.13;2.00;;;9.70;99.90;;;;;;4944265;28;20438;-92
2023/01/12 01:12:25;;;;;;;5.73;2.50;;;9.70;99.90;;;;;;4944758;28;21113;-92
2023/01/12 01:14:59;;;;;;;10.60;2.23;;;9.70;99.90;;;;;;4945216;28;20438;-92
2023/01/12 01:17:27;;;;;;;4.90;1.87;;;9.70;99.90;;;;;;4944138;28;20826;-93
2023/01/12 01:19:58;;;;;;;8.53;2.20;;;9.70;99.90;;;;;;4943944;28;20536;-93
2023/01/12 01:22:27;;;;;;;4.50;2.10;;;9.70;99.90;;;;;;4944292;28;20422;-92
2023/01/12 01:29:10;;;;;;;12.23;3.40;;;9.70;99.90;;;;;;4965071;28;20432;-92
2023/01/12 01:31:39;;;;;;;8.57;2.20;;;9.70;99.90;;;;;;4935570;29;20980;-93
2023/01/12 01:34:07;;;;;;;6.37;1.93;;;9.70;99.90;;;;;;4944031;28;20465;-93
2023/01/12 01:36:36;;;;;;;6.10;2.43;;;9.70;99.90;;;;;;4943829;28;20449;-93
2023/01/12 01:39:04;;;;;;;6.67;2.10;;;9.60;99.90;;;;;;4940689;29;20449;-92
2023/01/12 01:41:31;;;;;;;10.40;2.87;;;9.70;99.90;;;;;;4937088;28;20607;-92
2023/01/12 01:43:58;;;;;;;11.67;2.63;;;9.70;99.90;;;;;;4962983;28;20472;-93
2023/01/12 01:46:30;;;;;;;5.03;2.70;;;9.70;99.90;;;;;;4962915;28;20556;-92
2023/01/12 01:49:07;;;;;;;6.60;1.93;;;9.70;99.90;;;;;;4946816;28;20897;-92
2023/01/12 01:51:33;;;;;;;6.00;2.30;;;9.70;99.90;;;;;;4947152;28;20629;-92
2023/01/12 01:54:03;;;;;;;7.50;2.47;;;9.70;99.90;;;;;;4979506;28;20468;-92
2023/01/12 01:56:30;;;;;;;8.67;2.33;;;9.70;99.90;;;;;;4936535;29;20466;-92
2023/01/12 01:59:01;;;;;;;8.00;2.20;;;9.70;99.90;;;;;;4924603;28;20456;-93
2023/01/12 02:01:27;;;;;;;13.13;2.27;;;9.70;99.90;;;;;;4929618;29;20482;-92
2023/01/12 02:03:59;;;;;;;6.13;2.27;;;9.70;99.90;;;;;;4924957;29;20434;-91
2023/01/12 02:06:28;;;;;;;11.63;3.20;;;9.70;99.90;;;;;;4960518;28;20462;-92
2023/01/12 02:08:58;;;;;;;12.50;2.30;;;9.80;99.90;;;;;;4944119;28;20881;-92
2023/01/12 02:17:38;;;;;;;7.73;3.47;;;9.70;99.90;;;;;;4940265;28;20540;-92
2023/01/12 02:20:28;;;;;;;5.70;2.30;;;9.70;99.90;;;;;;4956089;29;20889;-92
2023/01/12 02:23:12;;;;;;;7.40;2.20;;;9.70;99.90;;;;;;4924123;29;20451;-91
2023/01/12 02:25:56;;;;;;;7.57;2.87;;;9.70;99.90;;;;;;4943243;29;20506;-92
2023/01/12 02:29:06;;;;;;;5.00;1.83;;;9.70;99.90;;;;;;4987783;28;20473;-93
2023/01/12 02:32:05;;;;;;;6.73;2.13;;;9.70;99.90;;;;;;4959369;28;20818;-93
2023/01/12 02:34:50;;;;;;;9.60;2.20;;;9.60;99.90;;;;;;4979647;28;20468;-93
2023/01/12 02:37:40;;;;;;;6.67;2.60;;;9.60;99.90;;;;;;4963384;28;20437;-92
2023/01/12 02:40:24;;;;;;;8.67;2.30;;;9.70;99.90;;;;;;4979778;28;20424;-92
2023/01/12 02:43:24;;;;;;;8.60;2.57;;;9.70;99.90;;;;;;4978813;28;20441;-91
2023/01/12 02:45:53;;;;;;;6.33;2.70;;;9.70;99.90;;;;;;4970988;28;20523;-91
2023/01/12 02:49:03;;;;;;;13.53;3.30;;;9.70;99.90;;;;;;4979317;28;20476;-91
2023/01/12 02:51:50;;;;;;;7.50;2.13;;;9.70;99.90;;;;;;4889409;29;20523;-91
2023/01/12 02:54:19;;;;;;;8.83;2.57;;;9.70;99.90;;;;;;4920866;29;20546;-91
2023/01/12 02:56:50;;;;;;;7.77;2.50;;;9.70;99.90;;;;;;4905637;29;20478;-91
2023/01/12 02:59:25;;;;;;;11.90;2.87;;;9.70;99.90;;;;;;4905057;29;20438;-91
2023/01/12 03:01:54;;;;;;;10.60;2.67;;;9.70;99.90;;;;;;4920692;29;20442;-90
2023/01/12 03:04:22;;;;;;;7.17;2.60;;;9.70;99.90;;;;;;4920380;29;20440;-89
2023/01/12 03:06:56;;;;;;;12.53;3.13;;;9.70;99.90;;;;;;4896511;28;20540;-91
2023/01/12 03:09:43;;;;;;;9.23;2.10;;;9.70;99.90;;;;;;4904789;29;20469;-90
2023/01/12 03:12:23;;;;;;;6.23;2.80;;;9.70;99.90;;;;;;4916765;29;20435;-90
2023/01/12 03:14:55;;;;;;;13.83;4.07;;;9.70;99.90;;;;;;4939519;29;20450;-90
2023/01/12 03:17:30;;;;;;;5.10;2.77;;;9.70;99.90;;;;;;4940665;29;20434;-91
2023/01/12 03:20:02;;;;;;;10.50;2.50;;;9.70;99.90;;;;;;4926488;29;20458;-90
2023/01/12 03:22:33;;;;;;;8.40;2.43;;;9.70;99.90;;;;;;4968790;28;20487;-91
2023/01/12 03:25:01;;;;;;;8.50;3.07;;;9.70;99.90;;;;;;4965772;28;20952;-89
2023/01/12 03:27:46;;;;;;;9.93;2.30;;;9.70;99.90;;;;;;4974656;28;20447;-90
2023/01/12 03:30:40;;;;;;;11.37;3.20;;;9.70;99.90;;;;;;5017890;28;20772;-90
2023/01/12 03:33:07;;;;;;;9.73;2.77;;;9.80;99.90;;;;;;4983519;28;20542;-91
2023/01/12 03:35:42;;;;;;;10.67;2.10;;;9.80;99.90;;;;;;4998501;28;20413;-90
2023/01/12 03:38:27;;;;;;;7.93;2.60;;;9.70;99.90;;;;;;4966177;28;20457;-91
2023/01/12 03:41:11;;;;;;;7.33;2.47;;;9.70;99.90;;;;;;4960150;28;20532;-91
2023/01/12 03:43:49;;;;;;;6.53;2.23;;;9.80;99.90;;;;;;4982658;28;20416;-91
2023/01/12 03:46:24;;;;;;;5.83;2.30;;;9.70;99.90;;;;;;4965376;28;20488;-90
2023/01/12 03:49:05;;;;;;;9.83;2.60;;;9.70;99.90;;;;;;5012490;28;20451;-90
2023/01/12 03:51:34;;;;;;;7.13;3.20;;;9.80;99.90;;;;;;4985018;28;20861;-91
2023/01/12 03:54:01;;;;;;;5.20;2.10;;;9.70;99.90;;;;;;4984562;28;20426;-90
2023/01/12 03:56:30;;;;;;;11.03;3.33;;;9.70;99.90;;;;;;4981016;28;20922;-90
2023/01/12 03:58:56;;;;;;;11.07;3.10;;;9.70;99.90;;;;;;4997648;28;20449;-90
2023/01/12 04:01:22;;;;;;;9.83;2.73;;;9.70;99.90;;;;;;4981711;28;20433;-90
2023/01/12 04:03:48;;;;;;;11.03;2.57;;;9.70;99.90;;;;;;4998234;28;20429;-90
2023/01/12 04:06:14;;;;;;;7.57;2.53;;;9.70;99.90;;;;;;4981460;28;20498;-91
2023/01/12 04:08:46;;;;;;;5.33;2.10;;;9.70;99.90;;;;;;4978043;28;20613;-90
2023/01/12 04:13:57;;;;;;;11.17;3.40;;;9.70;99.90;;;;;;4961952;28;20503;-90
2023/01/12 04:16:24;;;;;;;5.63;2.00;;;9.70;99.90;;;;;;4967168;28;20448;-91
2023/01/12 04:18:55;;;;;;;6.20;1.97;;;9.70;99.90;;;;;;4965916;28;20512;-90
2023/01/12 04:24:05;;;;;;;7.33;2.23;;;9.80;99.90;;;;;;4978758;28;20458;-90
2023/01/12 04:26:31;;;;;;;8.50;2.30;;;9.80;99.90;;;;;;4945620;28;20564;-90
2023/01/12 04:28:57;;;;;;;10.70;2.13;;;9.80;99.90;;;;;;4966358;28;20422;-90
2023/01/12 04:31:23;;;;;;;6.13;2.20;;;9.80;99.90;;;;;;4983349;28;20189;-90
2023/01/12 04:33:49;;;;;;;8.97;2.37;;;9.80;99.90;;;;;;5000421;28;20424;-89
2023/01/12 04:36:15;;;;;;;5.50;2.40;;;9.80;99.90;;;;;;5000387;28;20835;-90
2023/01/12 04:38:41;;;;;;;5.10;2.37;;;9.70;99.90;;;;;;4984495;28;20605;-90
2023/01/12 04:41:07;;;;;;;4.93;1.80;;;9.80;99.90;;;;;;5000340;28;20277;-90
2023/01/12 04:43:34;;;;;;;7.10;2.07;;;9.80;99.90;;;;;;5000313;28;20453;-90
2023/01/12 04:46:05;;;;;;;3.87;1.70;;;9.80;99.90;;;;;;4984001;28;20539;-90
2023/01/12 04:48:31;;;;;;;6.30;1.73;;;9.80;99.90;;;;;;4984409;28;20474;-90
2023/01/12 04:50:59;;;;;;;5.97;1.90;;;9.70;99.90;;;;;;5015359;28;20783;-89
2023/01/12 04:53:25;;;;;;;5.70;2.17;;;9.80;99.90;;;;;;4980453;28;20412;-90
2023/01/12 04:55:51;;;;;;;5.57;1.67;;;9.80;99.90;;;;;;4950198;28;20552;-89
2023/01/12 04:58:19;;;;;;;7.60;2.10;;;9.80;99.90;;;;;;4960767;28;20527;-90
2023/01/12 05:00:45;;;;;;;8.30;2.50;;;9.80;99.90;;;;;;4944980;28;20434;-90
2023/01/12 05:03:13;;;;;;;7.80;1.80;;;9.80;99.90;;;;;;4976941;28;20557;-91
2023/01/12 05:05:41;;;;;;;5.93;2.00;;;9.80;99.90;;;;;;4944868;28;20496;-91
2023/01/12 05:10:55;;;;;;;7.53;1.67;;;9.80;99.90;;;;;;4976848;28;20763;-90
2023/01/12 05:13:28;;;;;;;6.50;1.93;;;9.70;99.90;;;;;;4964644;28;20540;-89
2023/01/12 05:15:54;;;;;;;8.20;2.10;;;9.70;99.90;;;;;;4980171;28;20455;-90
2023/01/12 05:18:22;;;;;;;4.37;1.80;;;9.80;99.90;;;;;;4990386;28;20492;-90
2023/01/12 05:20:48;;;;;;;4.83;1.80;;;9.80;99.90;;;;;;4964441;28;20459;-91
2023/01/12 05:23:17;;;;;;;4.90;1.83;;;9.80;99.90;;;;;;4996030;28;20428;-90
2023/01/12 05:25:43;;;;;;;6.07;2.07;;;9.80;99.90;;;;;;4980071;28;20522;-91
2023/01/12 05:28:09;;;;;;;5.00;1.50;;;9.80;99.90;;;;;;4964186;28;20202;-90
2023/01/12 05:30:35;;;;;;;4.70;1.50;;;9.80;99.90;;;;;;4964115;28;20433;-91
2023/01/12 05:33:03;;;;;;;3.67;1.57;;;9.80;99.90;;;;;;4995951;28;20421;-91
2023/01/12 05:35:29;;;;;;;6.83;1.43;;;9.80;99.90;;;;;;4979646;28;20456;-90
2023/01/12 05:37:56;;;;;;;5.20;1.70;;;9.80;99.90;;;;;;4964314;28;20205;-90
2023/01/12 05:40:25;;;;;;;7.17;2.10;;;9.80;99.90;;;;;;4978967;28;20428;-90
2023/01/12 05:45:41;;;;;;;3.80;1.47;;;9.80;99.90;;;;;;4966156;28;20472;-90
2023/01/12 05:48:08;;;;;;;6.23;1.80;;;9.80;99.90;;;;;;4964484;28;20479;-90
2023/01/12 05:50:37;;;;;;;3.77;1.40;;;9.80;99.90;;;;;;4980606;28;20414;-90
2023/01/12 05:53:09;;;;;;;5.73;1.80;;;9.80;99.90;;;;;;4996724;28;20448;-90
2023/01/12 05:55:38;;;;;;;6.30;1.67;;;9.80;99.90;;;;;;4976577;28;20436;-90
2023/01/12 05:58:04;;;;;;;7.47;2.37;;;9.80;99.90;;;;;;4983555;28;20489;-91
2023/01/12 06:00:30;;;;;;;6.43;1.63;;;9.80;99.90;;;;;;4999617;28;20464;-92
2023/01/12 06:02:56;;;;;;;5.53;1.37;;;9.80;99.90;;;;;;4983333;28;20827;-91
2023/01/12 06:05:22;;;;;;;7.00;1.87;;;9.80;99.90;;;;;;4982870;28;20473;-92
2023/01/12 06:07:48;;;;;;;5.07;1.93;;;9.80;99.90;;;;;;4999162;28;20444;-92
2023/01/12 06:10:14;;;;;;;3.37;1.50;;;9.70;99.90;;;;;;4993460;28;20441;-91
2023/01/12 06:15:41;;;;;;;8.03;1.53;;;9.80;99.90;;;;;;4955121;29;20439;-91
2023/01/12 06:18:07;;;;;;;3.93;1.80;;;9.80;99.90;;;;;;4952405;28;20462;-91
2023/01/12 06:20:33;;;;;;;5.00;1.60;;;9.80;99.90;;;;;;4960244;28;20572;-92
2023/01/12 06:23:01;;;;;;;4.77;1.50;;;9.80;99.90;;;;;;4944226;28;20521;-91
2023/01/12 06:25:28;;;;;;;7.03;1.87;;;9.80;99.90;;;;;;4982997;28;20475;-91
2023/01/12 06:27:55;;;;;;;5.23;1.83;;;9.70;99.90;;;;;;4999147;28;20408;-91
2023/01/12 06:30:21;;;;;;;5.50;2.37;;;9.70;99.90;;;;;;4998868;28;20553;-91
2023/01/12 06:32:47;;;;;;;5.03;1.03;;;9.80;99.90;;;;;;4989532;28;20464;-91
2023/01/12 06:35:15;;;;;;;3.73;1.50;;;9.70;99.90;;;;;;4998928;28;20510;-90
2023/01/12 06:37:41;;;;;;;3.10;1.63;;;9.70;99.90;;;;;;4998848;28;20447;-91
2023/01/12 06:40:13;;;;;;;7.87;1.60;;;9.80;99.90;;;;;;4981889;28;20448;-91
2023/01/12 06:42:42;;;;;;;5.13;2.00;;;9.80;99.90;;;;;;4963712;28;20794;-91
2023/01/12 06:45:08;;;;;;;7.23;2.03;;;9.80;99.90;;;;;;4963087;28;20484;-90
2023/01/12 06:47:46;;;;;;;2.90;1.50;;;9.70;99.90;;;;;;4961774;28;20429;-91
2023/01/12 06:50:15;;;;;;;3.93;1.63;;;9.80;99.90;;;;;;4963951;28;20467;-90
2023/01/12 06:52:41;;;;;;;5.80;1.50;;;9.70;99.90;;;;;;4964716;28;20814;-90
2023/01/12 06:55:08;;;;;;;3.63;1.33;;;9.70;99.90;;;;;;4991969;28;20425;-91
2023/01/12 06:57:33;;;;;;;5.13;1.60;;;9.80;99.90;;;;;;4966486;28;20479;-91
2023/01/12 06:59:59;;;;;;;6.00;1.47;;;9.80;99.90;;;;;;4966675;28;20428;-90
2023/01/12 07:02:25;;;;;;;2.33;1.00;;;9.80;99.90;;;;;;4984859;28;20960;-89
2023/01/12 07:04:51;;;;;;;4.83;1.33;;;9.80;99.90;;;;;;4966253;28;20481;-90
2023/01/12 07:07:17;;;;;;;9.40;1.37;;;9.80;99.90;;;;;;4982114;28;20491;-90
2023/01/12 07:09:43;;;;;;;2.73;1.27;;;9.80;99.90;;;;;;4982392;28;20440;-90
2023/01/12 07:12:09;;;;;;;5.80;1.80;;;9.80;99.90;;;;;;4966061;28;20217;-89
2023/01/12 07:14:35;;;;;;;5.33;1.63;;;9.80;99.90;;;;;;4982032;28;20507;-89
2023/01/12 07:17:01;;;;;;;2.20;1.10;;;9.80;99.90;;;;;;4982535;28;20432;-89
2023/01/12 07:19:27;;;;;;;7.10;1.73;;;9.80;99.90;;;;;;5010060;28;20954;-90
2023/01/12 07:21:55;;;;;;;4.83;1.50;;;9.80;99.90;;;;;;5001493;28;20433;-89
2023/01/12 07:24:21;;;;;;;3.93;1.57;;;9.80;99.90;;;;;;4984647;28;20451;-89
2023/01/12 07:26:48;;;;;;;4.10;1.63;;;9.80;99.90;;;;;;4981821;28;20460;-89
2023/01/12 07:29:15;;;;;;;5.97;1.73;;;9.80;99.90;;;;;;4998563;28;20869;-89
2023/01/12 07:31:43;;;;;;;3.73;1.30;;;9.80;99.90;;;;;;4981159;28;20487;-90
2023/01/12 07:34:19;;;;;;;4.13;1.60;;;9.80;99.90;;;;;;4982261;28;20806;-90
2023/01/12 07:37:06;;;;;;;3.53;1.63;;;9.80;99.90;;;;;;4978366;28;20461;-90
2023/01/12 07:39:31;;;;;;;8.03;1.87;;;9.80;99.90;;;;;;4946545;28;20461;-89
2023/01/12 07:44:42;;;;;;;4.50;1.77;;;9.80;99.90;;;;;;4962636;28;20421;-90
2023/01/12 07:47:11;;;;;;;9.23;1.77;;;9.80;99.90;;;;;;4962872;28;20428;-91
2023/01/12 07:49:37;;;;;;;2.93;1.53;;;9.80;99.90;;;;;;4946419;28;20440;-90
2023/01/12 07:52:03;;;;;;;2.80;1.40;;;9.80;99.90;;;;;;4946627;28;20440;-90
2023/01/12 07:54:29;;;;;;;4.13;1.33;;;9.80;99.90;;;;;;4962364;28;20422;-90
2023/01/12 07:56:58;;;;;;;4.73;1.53;;;9.80;99.90;;;;;;4992457;28;20446;-91
2023/01/12 07:59:26;;;;;;;4.87;1.47;;;9.80;99.90;;;;;;5017356;28;20420;-91
2023/01/12 08:01:54;;;;;;;6.00;1.77;;;9.80;99.90;;;;;;5000257;28;20452;-90
2023/01/12 08:04:23;;;;;;;5.13;1.23;;;9.90;99.90;;;;;;5000856;28;20503;-90
2023/01/12 08:06:51;;;;;;;5.13;1.50;;;9.90;99.90;;;;;;5009117;28;20576;-91
2023/01/12 08:09:17;;;;;;;4.00;1.50;;;9.90;99.90;;;;;;4981505;28;20456;-91
2023/01/12 08:11:43;;;;;;;8.50;1.70;;;9.90;99.90;;;;;;4981334;28;20456;-90
2023/01/12 08:14:32;;;;;;;5.20;1.10;;;9.90;99.90;;;;;;4981254;28;20447;-90
2023/01/12 08:17:02;;;;;;;5.07;1.83;;;9.90;99.90;;;;;;4981828;28;20461;-90
2023/01/12 08:19:37;;;;;;;2.70;1.20;;;9.90;99.90;;;;;;4981302;28;20426;-91
2023/01/12 08:22:08;;;;;;;4.13;2.13;;;9.90;99.90;;;;;;4981574;28;20846;-91
2023/01/12 08:24:40;;;;;;;3.13;1.10;;;9.90;99.90;;;;;;4965321;28;20419;-91
2023/01/12 08:27:09;;;;;;;1.80;1.10;;;9.90;99.90;;;;;;4981789;28;20449;-92
2023/01/12 08:29:46;;;;;;;2.80;1.40;;;10.00;99.90;;;;;;4994416;28;20985;-91
2023/01/12 08:32:16;;;;;;;4.00;1.50;;;9.90;99.90;;;;;;5000491;28;20402;-91
2023/01/12 08:34:47;;;;;;;3.97;1.40;;;9.90;99.90;;;;;;5017196;28;20419;-91
2023/01/12 08:37:18;;;;;;;3.57;1.43;;;9.90;99.90;;;;;;5016773;28;20408;-90
2023/01/12 08:39:44;;;;;;;3.63;1.37;;;9.90;99.90;;;;;;4992098;28;21262;-91
2023/01/12 08:42:10;;;;;;;3.00;1.10;;;9.90;99.90;;;;;;4960750;28;20460;-92
2023/01/12 08:44:39;;;;;;;4.00;1.37;;;9.90;99.90;;;;;;4944873;28;20456;-91
2023/01/12 08:47:17;;;;;;;5.10;1.43;;;9.90;99.90;;;;;;4960455;28;20544;-91
2023/01/12 08:49:45;;;;;;;5.13;1.17;;;10.00;99.90;;;;;;4976838;28;20445;-91
2023/01/12 08:52:11;;;;;;;3.90;1.87;;;10.00;99.90;;;;;;4960509;28;20451;-90
2023/01/12 08:54:37;;;;;;;3.23;1.20;;;10.00;99.90;;;;;;4976300;28;20415;-91
2023/01/12 08:57:06;;;;;;;2.60;1.20;;;10.00;99.90;;;;;;4976664;28;20490;-90
2023/01/12 08:59:32;;;;;;;7.47;1.60;;;10.00;99.90;;;;;;4976580;28;20478;-91
2023/01/12 09:01:58;;;;;;;4.97;1.10;;;10.00;99.90;;;;;;4960180;28;20453;-90
2023/01/12 09:04:26;;;;;;;3.23;1.00;;;10.00;99.90;;;;;;4976331;28;20521;-90
2023/01/12 09:06:52;;;;;;;2.10;1.07;;;10.00;99.90;;;;;;4944005;28;20881;-89
2023/01/12 09:09:19;;;;;;;2.43;0.90;;;10.00;99.90;;;;;;4943924;28;20434;-90
2023/01/12 09:11:47;;;;;;;4.80;1.30;;;10.00;99.90;;;;;;4973366;28;20545;-90
2023/01/12 09:14:14;;;;;;;3.30;1.13;;;10.10;99.90;;;;;;4959363;28;20548;-91
2023/01/12 09:16:41;;;;;;;3.20;1.20;;;10.00;99.90;;;;;;4976535;28;20773;-91
2023/01/12 09:19:08;;;;;;;1.80;1.00;;;10.00;99.90;;;;;;4963631;28;20481;-89
2023/01/12 09:21:37;;;;;;;1.80;1.00;;;10.00;99.90;;;;;;4996931;28;20761;-91
2023/01/12 09:24:10;;;;;;;2.80;1.00;;;10.00;99.90;;;;;;4964450;28;20456;-91
2023/01/12 09:26:45;;;;;;;4.77;0.97;;;10.00;99.90;;;;;;4979703;28;20468;-91
2023/01/12 09:29:13;;;;;;;2.90;1.03;;;10.10;99.90;;;;;;4996414;28;20820;-91
2023/01/12 09:31:42;;;;;;;2.10;1.40;;;10.10;99.90;;;;;;4968166;28;20442;-91
2023/01/12 09:34:08;;;;;;;4.30;1.40;;;10.10;99.90;;;;;;4960686;28;20441;-91
2023/01/12 09:36:36;;;;;;;2.30;1.10;;;10.10;99.90;;;;;;4944725;28;20465;-91
2023/01/12 09:39:03;;;;;;;2.07;0.97;;;10.10;99.90;;;;;;4944787;28;20449;-93
2023/01/12 09:47:55;;;;;;;3.20;1.50;;;10.10;99.90;;;;;;4976669;28;20461;-92
2023/01/12 09:50:31;;;;;;;1.90;1.20;;;10.10;99.90;;;;;;4959218;28;20485;-91
2023/01/12 09:53:20;;;;;;;4.53;1.17;;;10.10;99.90;;;;;;4944567;28;20453;-92
2023/01/12 09:56:01;;;;;;;5.17;1.30;;;10.10;99.90;;;;;;4944720;28;20774;-91
2023/01/12 09:58:43;;;;;;;4.63;1.23;;;10.20;99.90;;;;;;4963402;28;20829;-92
2023/01/12 10:01:12;;;;;;;1.90;1.10;;;10.10;99.90;;;;;;4995990;28;20475;-89
2023/01/12 10:03:40;;;;;;;2.50;1.03;;;10.10;99.90;;;;;;4996514;28;20413;-90
2023/01/12 10:06:15;;;;;;;3.77;1.20;;;10.20;99.90;;;;;;4963500;28;20473;-90
2023/01/12 10:08:57;;;;;;;2.07;1.00;;;10.20;99.90;;;;;;4960499;28;20416;-90
2023/01/12 10:11:42;;;;;;;1.37;1.00;;;10.20;99.90;;;;;;4944949;28;20450;-90
2023/01/12 10:14:12;;;;;;;1.20;0.93;;;10.20;99.90;;;;;;5014951;28;20752;-90
2023/01/12 10:17:05;;;;;;;3.13;1.37;;;10.20;99.90;;;;;;4979337;28;20457;-90
2023/01/12 10:19:52;;;;;;;2.03;1.07;;;10.20;99.90;;;;;;4960327;28;20462;-89
2023/01/12 10:22:35;;;;;;;1.80;1.00;;;10.20;99.90;;;;;;4960145;28;20461;-90
2023/01/12 10:25:39;;;;;;;2.67;1.20;;;10.20;99.90;;;;;;4944274;28;20469;-89
2023/01/12 10:28:22;;;;;;;1.37;0.63;;;10.20;99.90;;;;;;4992336;28;20514;-89
2023/01/12 10:30:49;;;;;;;2.63;1.23;;;10.20;99.90;;;;;;4999640;28;20400;-89
2023/01/12 10:33:40;;;;;;;2.73;1.17;;;10.20;99.90;;;;;;4999278;28;20528;-89
2023/01/12 10:36:16;;;;;;;3.03;1.30;;;10.20;99.90;;;;;;5000044;28;20528;-90
2023/01/12 10:38:51;;;;;;;2.63;1.57;;;10.20;99.90;;;;;;4967391;28;20539;-90
2023/01/12 10:41:20;;;;;;;3.43;1.17;;;10.20;99.90;;;;;;4967175;28;20456;-91
2023/01/12 10:44:10;;;;;;;2.10;1.40;;;10.30;99.90;;;;;;4982767;28;20421;-92
2023/01/12 10:46:39;;;;;;;5.47;1.33;;;10.30;99.90;;;;;;4999900;28;20929;-90
2023/01/12 10:49:22;;;;;;;1.80;1.03;;;10.30;99.90;;;;;;4983310;28;20460;-90
2023/01/12 10:51:57;;;;;;;2.97;1.00;;;10.30;99.90;;;;;;4967134;28;20967;-89
2023/01/12 10:54:26;;;;;;;5.80;1.40;;;10.30;99.90;;;;;;4966730;28;20471;-88
2023/01/12 10:57:12;;;;;;;1.87;1.03;;;10.30;99.90;;;;;;4982590;28;20425;-89
2023/01/12 10:59:42;;;;;;;3.90;1.13;;;10.30;99.90;;;;;;4998835;28;20808;-88
2023/01/12 11:02:12;;;;;;;2.40;1.27;;;10.30;99.90;;;;;;4982725;28;20479;-89
2023/01/12 11:04:45;;;;;;;3.10;1.07;;;10.30;99.90;;;;;;4982818;28;20430;-89
2023/01/12 11:07:13;;;;;;;6.10;2.17;;;10.30;99.90;;;;;;4966139;28;20907;-89
2023/01/12 11:09:41;;;;;;;4.47;1.10;;;10.30;99.90;;;;;;4965523;28;20469;-89
2023/01/12 11:12:44;;;;;;;2.10;1.30;;;10.30;99.90;;;;;;4947479;28;20441;-89
2023/01/12 11:15:16;;;;;;;6.17;1.70;;;10.30;99.90;;;;;;4959785;28;20875;-90
2023/01/12 11:18:14;;;;;;;4.27;1.40;;;10.30;99.90;;;;;;4968857;28;21083;-89
2023/01/12 11:20:53;;;;;;;5.50;1.00;;;10.30;99.90;;;;;;5018326;28;20829;-89
2023/01/12 11:23:30;;;;;;;2.10;0.90;;;10.40;99.90;;;;;;4986214;28;20482;-90
2023/01/12 11:26:01;;;;;;;3.83;1.23;;;10.40;99.90;;;;;;4994468;28;20970;-88
2023/01/12 11:28:34;;;;;;;4.73;1.20;;;10.40;99.90;;;;;;4972265;28;20441;-88
2023/01/12 11:31:16;;;;;;;2.27;1.33;;;10.40;99.90;;;;;;4948181;28;20416;-89
2023/01/12 11:33:48;;;;;;;3.60;1.43;;;10.40;99.90;;;;;;4948213;28;20418;-89
2023/01/12 11:36:19;;;;;;;7.60;1.00;;;10.40;99.90;;;;;;4966398;28;20457;-89
2023/01/12 11:38:44;;;;;;;2.80;0.80;;;10.40;99.90;;;;;;4965147;28;20477;-91
2023/01/12 11:43:47;;;;;;;2.70;1.00;;;10.40;99.90;;;;;;4965784;28;20465;-89
2023/01/12 11:44:37;;;;;;;2.70;1.53;;;10.40;99.90;;;;;;4997670;28;20210;-89
2023/01/12 11:47:03;;;;;;;3.23;1.10;;;10.40;99.90;;;;;;4978379;28;20439;-88
2023/01/12 11:50:19;;;;;;;2.97;1.60;;;10.40;99.90;;;;;;4979653;28;20426;-90
2023/01/12 11:52:45;;;;;;;1.43;0.80;;;10.40;99.90;;;;;;4985119;28;20763;-89
2023/01/12 11:55:16;;;;;;;2.43;1.10;;;10.50;99.90;;;;;;5001435;28;20448;-90
2023/01/12 11:57:57;;;;;;;5.90;1.30;;;10.50;99.90;;;;;;5001202;28;20397;-89
2023/01/12 12:00:26;;;;;;;3.30;1.00;;;10.50;99.90;;;;;;5000471;28;20416;-90
2023/01/12 12:03:29;;;;;;;2.13;1.00;;;10.50;99.90;;;;;;4981358;28;20416;-90
2023/01/12 12:06:07;;;;;;;1.83;1.33;;;10.50;99.90;;;;;;4961708;28;20464;-89
2023/01/12 12:08:55;;;;;;;2.33;1.37;;;10.50;99.90;;;;;;4962219;28;20764;-89
2023/01/12 12:11:32;;;;;;;2.70;1.30;;;10.50;99.90;;;;;;4946080;28;20481;-90
2023/01/12 12:14:40;;;;;;;4.13;1.20;;;10.50;99.90;;;;;;4961969;28;20536;-89
2023/01/12 12:17:17;;;;;;;2.70;1.10;;;10.50;99.90;;;;;;4974096;28;20441;-88
2023/01/12 12:20:33;;;;;;;3.53;1.10;;;10.50;99.90;;;;;;4945817;28;21018;-89
2023/01/12 12:23:31;;;;;;;4.03;1.50;;;10.50;99.90;;;;;;4951157;28;20477;-89
2023/01/12 12:26:08;;;;;;;1.70;1.17;;;10.50;99.90;;;;;;4981804;28;20461;-89
2023/01/12 12:28:59;;;;;;;2.13;1.33;;;10.50;99.90;;;;;;4997011;28;20459;-89
2023/01/12 12:31:25;;;;;;;2.70;0.93;;;10.50;99.90;;;;;;4981181;28;20438;-89
2023/01/12 12:34:02;;;;;;;3.13;1.07;;;10.50;99.90;;;;;;4981098;28;20423;-89
2023/01/12 12:36:44;;;;;;;2.83;1.10;;;10.50;99.90;;;;;;4980998;28;20206;-89
2023/01/12 12:39:23;;;;;;;5.23;1.53;;;10.50;99.90;;;;;;4981028;28;20430;-90
2023/01/12 12:45:15;;;;;;;2.33;1.20;;;10.50;99.90;;;;;;4980936;28;20417;-89
2023/01/12 12:48:06;;;;;;;3.03;1.10;;;10.50;99.90;;;;;;4980612;28;20842;-89
2023/01/12 12:50:59;;;;;;;2.50;1.50;;;10.50;99.90;;;;;;4993888;28;20509;-89
2023/01/12 12:53:34;;;;;;;2.30;1.20;;;10.50;99.90;;;;;;5000388;28;20807;-89
2023/01/12 12:56:14;;;;;;;1.97;1.20;;;10.50;99.90;;;;;;4993924;28;20440;-89
2023/01/12 12:58:45;;;;;;;3.97;0.83;;;10.50;99.90;;;;;;4961076;28;20422;-89
2023/01/12 13:01:20;;;;;;;1.70;1.47;;;10.50;99.90;;;;;;4961361;28;20473;-89
2023/01/12 13:03:49;;;;;;;2.67;1.20;;;10.60;99.90;;;;;;4988180;28;20468;-89
2023/01/12 13:06:42;;;;;;;1.97;1.20;;;10.60;99.90;;;;;;4999170;28;20496;-90
2023/01/12 13:09:16;;;;;;;2.50;0.80;;;10.60;99.90;;;;;;4957417;28;20430;-89
2023/01/12 13:12:07;;;;;;;2.63;1.17;;;10.60;99.90;;;;;;4973053;28;20445;-89
2023/01/12 13:14:39;;;;;;;4.30;1.10;;;10.60;99.90;;;;;;4980249;28;20441;-89
2023/01/12 13:17:20;;;;;;;1.97;1.10;;;10.60;99.90;;;;;;4976704;28;20533;-90
2023/01/12 13:20:10;;;;;;;1.97;0.90;;;10.60;99.90;;;;;;4967927;28;20432;-89
2023/01/12 13:22:41;;;;;;;4.63;1.13;;;10.60;99.90;;;;;;4944563;28;20461;-90
2023/01/12 13:25:20;;;;;;;2.57;0.90;;;10.60;99.90;;;;;;4963677;28;20552;-89
2023/01/12 13:27:49;;;;;;;1.83;1.00;;;10.60;99.90;;;;;;4996276;28;20411;-89
2023/01/12 13:30:27;;;;;;;2.87;1.40;;;10.60;99.90;;;;;;4979724;28;20517;-89
2023/01/12 13:33:22;;;;;;;1.67;1.10;;;10.60;99.90;;;;;;4979927;28;20420;-90
2023/01/12 13:35:48;;;;;;;2.40;0.90;;;10.60;99.90;;;;;;4979755;28;20440;-90
2023/01/12 13:38:43;;;;;;;1.17;0.80;;;10.60;99.90;;;;;;4964337;28;20426;-89
2023/01/12 13:41:14;;;;;;;1.20;0.90;;;10.60;99.90;;;;;;4944702;28;20507;-89
2023/01/12 13:43:51;;;;;;;1.80;1.10;;;10.60;99.90;;;;;;4993796;28;20499;-89
2023/01/12 13:46:23;;;;;;;1.97;1.00;;;10.60;99.90;;;;;;4964187;28;20476;-91
2023/01/12 13:48:57;;;;;;;1.47;1.00;;;10.60;99.90;;;;;;4979823;28;20448;-89
2023/01/12 13:51:52;;;;;;;2.77;1.10;;;10.70;99.90;;;;;;4975771;28;20442;-90
2023/01/12 13:54:18;;;;;;;2.80;1.03;;;10.70;99.90;;;;;;4960695;28;20501;-89
2023/01/12 13:56:57;;;;;;;3.23;1.10;;;10.70;99.90;;;;;;4945426;28;20477;-90
2023/01/12 13:59:24;;;;;;;4.03;1.27;;;10.70;99.90;;;;;;4973551;28;20451;-90
2023/01/12 14:01:51;;;;;;;3.50;0.80;;;10.70;99.90;;;;;;4995244;28;20436;-89
2023/01/12 14:04:54;;;;;;;3.63;0.90;;;10.70;99.90;;;;;;4979722;28;20455;-90
2023/01/12 14:07:36;;;;;;;5.30;0.90;;;10.70;99.90;;;;;;4995197;28;20424;-89
2023/01/12 14:10:24;;;;;;;4.13;1.17;;;10.70;99.90;;;;;;4979466;28;20527;-89
2023/01/12 14:12:56;;;;;;;1.67;0.93;;;10.70;99.90;;;;;;4994292;28;20469;-89